sensor_id;sensor_type;location;lat;lon;timestamp;P1;durP1;ratioP1;P2;durP2;ratioP2
1831;SDS011;1680;48.106;11.708;2022-11-20T00:02:13;2.03;;;1.87;;
1831;SDS011;1680;48.106;11.708;2022-11-20T00:04:40;3.33;;;1.93;;
1831;SDS011;1680;48.106;11.708;2022-11-20T00:07:06;2.33;;;2.10;;
1831;SDS011;1680;48.106;11.708;2022-11-20T00:09:33;2.13;;;1.93;;
1831;SDS011;1680;48.106;11.708;2022-11-20T00:11:59;1.87;;;1.77;;
1831;SDS011;1680;48.106;11.708;2022-11-20T00:14:26;2.20;;;1.67;;
1831;SDS011;1680;48.106;11.708;2022-11-20T00:16:53;1.93;;;1.70;;
1831;SDS011;1680;48.106;11.708;2022-11-20T00:19:21;3.53;;;2.20;;
1831;SDS011;1680;48.106;11.708;2022-11-20T00:21:47;3.60;;;1.90;;
1831;SDS011;1680;48.106;11.708;2022-11-20T00:24:16;1.80;;;1.70;;
1831;SDS011;1680;48.106;11.708;2022-11-20T00:26:43;1.97;;;1.70;;
1831;SDS011;1680;48.106;11.708;2022-11-20T00:29:09;2.23;;;1.97;;
1831;SDS011;1680;48.106;11.708;2022-11-20T00:31:37;2.00;;;1.60;;
1831;SDS011;1680;48.106;11.708;2022-11-20T00:34:03;1.87;;;1.73;;
1831;SDS011;1680;48.106;11.708;2022-11-20T00:36:33;2.63;;;1.90;;
1831;SDS011;1680;48.106;11.708;2022-11-20T00:38:59;2.10;;;1.70;;
1831;SDS011;1680;48.106;11.708;2022-11-20T00:41:27;1.97;;;1.77;;
1831;SDS011;1680;48.106;11.708;2022-11-20T00:43:54;2.10;;;1.90;;
1831;SDS011;1680;48.106;11.708;2022-11-20T00:46:21;2.07;;;1.97;;
1831;SDS011;1680;48.106;11.708;2022-11-20T00:48:48;1.97;;;1.87;;
1831;SDS011;1680;48.106;11.708;2022-11-20T00:51:15;2.23;;;1.93;;
1831;SDS011;1680;48.106;11.708;2022-11-20T00:53:44;1.83;;;1.73;;
1831;SDS011;1680;48.106;11.708;2022-11-20T00:56:11;3.63;;;2.00;;
1831;SDS011;1680;48.106;11.708;2022-11-20T00:58:38;2.40;;;1.73;;
1831;SDS011;1680;48.106;11.708;2022-11-20T01:01:06;1.73;;;1.63;;
1831;SDS011;1680;48.106;11.708;2022-11-20T01:03:33;2.30;;;2.03;;
1831;SDS011;1680;48.106;11.708;2022-11-20T01:06:00;1.90;;;1.60;;
1831;SDS011;1680;48.106;11.708;2022-11-20T01:08:29;1.70;;;1.60;;
1831;SDS011;1680;48.106;11.708;2022-11-20T01:10:59;1.73;;;1.63;;
1831;SDS011;1680;48.106;11.708;2022-11-20T01:13:26;1.90;;;1.80;;
1831;SDS011;1680;48.106;11.708;2022-11-20T01:16:05;2.03;;;1.93;;
1831;SDS011;1680;48.106;11.708;2022-11-20T01:18:32;1.70;;;1.60;;
1831;SDS011;1680;48.106;11.708;2022-11-20T01:21:02;4.33;;;2.10;;
1831;SDS011;1680;48.106;11.708;2022-11-20T01:23:32;2.63;;;1.97;;
1831;SDS011;1680;48.106;11.708;2022-11-20T01:26:01;2.30;;;2.10;;
1831;SDS011;1680;48.106;11.708;2022-11-20T01:28:29;2.40;;;1.90;;
1831;SDS011;1680;48.106;11.708;2022-11-20T01:30:55;2.00;;;1.80;;
1831;SDS011;1680;48.106;11.708;2022-11-20T01:33:22;1.80;;;1.67;;
1831;SDS011;1680;48.106;11.708;2022-11-20T01:35:49;1.60;;;1.50;;
1831;SDS011;1680;48.106;11.708;2022-11-20T01:38:17;2.17;;;1.90;;
1831;SDS011;1680;48.106;11.708;2022-11-20T01:40:45;1.70;;;1.60;;
1831;SDS011;1680;48.106;11.708;2022-11-20T01:43:14;2.53;;;2.00;;
1831;SDS011;1680;48.106;11.708;2022-11-20T01:45:56;1.73;;;1.63;;
1831;SDS011;1680;48.106;11.708;2022-11-20T01:48:24;1.80;;;1.50;;
1831;SDS011;1680;48.106;11.708;2022-11-20T01:50:51;2.50;;;1.77;;
1831;SDS011;1680;48.106;11.708;2022-11-20T01:53:19;2.00;;;1.90;;
1831;SDS011;1680;48.106;11.708;2022-11-20T01:55:49;2.23;;;1.60;;
1831;SDS011;1680;48.106;11.708;2022-11-20T01:58:17;2.10;;;1.90;;
1831;SDS011;1680;48.106;11.708;2022-11-20T02:00:45;2.03;;;1.70;;
1831;SDS011;1680;48.106;11.708;2022-11-20T02:03:13;2.57;;;2.00;;
1831;SDS011;1680;48.106;11.708;2022-11-20T02:05:43;2.57;;;2.03;;
1831;SDS011;1680;48.106;11.708;2022-11-20T02:08:11;2.20;;;2.00;;
1831;SDS011;1680;48.106;11.708;2022-11-20T02:10:38;2.30;;;2.10;;
1831;SDS011;1680;48.106;11.708;2022-11-20T02:13:04;2.20;;;2.03;;
1831;SDS011;1680;48.106;11.708;2022-11-20T02:15:50;2.37;;;2.17;;
1831;SDS011;1680;48.106;11.708;2022-11-20T02:18:18;3.00;;;2.43;;
1831;SDS011;1680;48.106;11.708;2022-11-20T02:20:46;2.77;;;1.90;;
1831;SDS011;1680;48.106;11.708;2022-11-20T02:23:16;2.20;;;2.07;;
1831;SDS011;1680;48.106;11.708;2022-11-20T02:25:45;2.00;;;1.90;;
1831;SDS011;1680;48.106;11.708;2022-11-20T02:28:12;2.27;;;2.07;;
1831;SDS011;1680;48.106;11.708;2022-11-20T02:30:39;2.70;;;2.17;;
1831;SDS011;1680;48.106;11.708;2022-11-20T02:33:06;2.30;;;2.10;;
1831;SDS011;1680;48.106;11.708;2022-11-20T02:35:39;3.13;;;2.30;;
1831;SDS011;1680;48.106;11.708;2022-11-20T02:38:07;2.43;;;2.17;;
1831;SDS011;1680;48.106;11.708;2022-11-20T02:40:33;3.43;;;2.40;;
1831;SDS011;1680;48.106;11.708;2022-11-20T02:43:01;1.97;;;1.87;;
1831;SDS011;1680;48.106;11.708;2022-11-20T02:45:28;2.30;;;2.17;;
1831;SDS011;1680;48.106;11.708;2022-11-20T02:47:55;2.53;;;2.33;;
1831;SDS011;1680;48.106;11.708;2022-11-20T02:50:21;2.47;;;2.27;;
1831;SDS011;1680;48.106;11.708;2022-11-20T02:52:48;2.60;;;1.90;;
1831;SDS011;1680;48.106;11.708;2022-11-20T02:55:15;2.77;;;2.47;;
1831;SDS011;1680;48.106;11.708;2022-11-20T02:57:43;2.57;;;2.37;;
1831;SDS011;1680;48.106;11.708;2022-11-20T03:00:11;2.50;;;2.30;;
1831;SDS011;1680;48.106;11.708;2022-11-20T03:02:38;2.50;;;2.27;;
1831;SDS011;1680;48.106;11.708;2022-11-20T03:05:05;2.10;;;2.00;;
1831;SDS011;1680;48.106;11.708;2022-11-20T03:07:32;2.80;;;2.50;;
1831;SDS011;1680;48.106;11.708;2022-11-20T03:09:58;2.20;;;2.10;;
1831;SDS011;1680;48.106;11.708;2022-11-20T03:12:25;2.70;;;2.40;;
1831;SDS011;1680;48.106;11.708;2022-11-20T03:14:52;2.70;;;2.50;;
1831;SDS011;1680;48.106;11.708;2022-11-20T03:17:20;3.70;;;2.50;;
1831;SDS011;1680;48.106;11.708;2022-11-20T03:19:46;2.47;;;2.27;;
1831;SDS011;1680;48.106;11.708;2022-11-20T03:22:13;2.50;;;2.30;;
1831;SDS011;1680;48.106;11.708;2022-11-20T03:24:39;4.00;;;2.50;;
1831;SDS011;1680;48.106;11.708;2022-11-20T03:27:06;2.63;;;2.30;;
1831;SDS011;1680;48.106;11.708;2022-11-20T03:29:32;2.63;;;2.40;;
1831;SDS011;1680;48.106;11.708;2022-11-20T03:32:00;2.83;;;2.53;;
1831;SDS011;1680;48.106;11.708;2022-11-20T03:34:28;2.20;;;2.00;;
1831;SDS011;1680;48.106;11.708;2022-11-20T03:36:56;2.33;;;2.13;;
1831;SDS011;1680;48.106;11.708;2022-11-20T03:39:23;2.60;;;2.10;;
1831;SDS011;1680;48.106;11.708;2022-11-20T03:41:49;2.47;;;2.27;;
1831;SDS011;1680;48.106;11.708;2022-11-20T03:44:17;2.70;;;2.37;;
1831;SDS011;1680;48.106;11.708;2022-11-20T03:46:43;2.63;;;2.43;;
1831;SDS011;1680;48.106;11.708;2022-11-20T03:49:10;2.20;;;2.00;;
1831;SDS011;1680;48.106;11.708;2022-11-20T03:51:38;2.57;;;2.30;;
1831;SDS011;1680;48.106;11.708;2022-11-20T03:54:06;2.20;;;2.03;;
1831;SDS011;1680;48.106;11.708;2022-11-20T03:56:33;2.27;;;2.17;;
1831;SDS011;1680;48.106;11.708;2022-11-20T03:59:00;2.47;;;2.27;;
1831;SDS011;1680;48.106;11.708;2022-11-20T04:01:27;2.47;;;2.27;;
1831;SDS011;1680;48.106;11.708;2022-11-20T04:03:55;2.30;;;2.10;;
1831;SDS011;1680;48.106;11.708;2022-11-20T04:06:23;2.57;;;2.20;;
1831;SDS011;1680;48.106;11.708;2022-11-20T04:08:51;3.73;;;2.73;;
1831;SDS011;1680;48.106;11.708;2022-11-20T04:11:18;3.83;;;2.67;;
1831;SDS011;1680;48.106;11.708;2022-11-20T04:13:46;2.93;;;2.73;;
1831;SDS011;1680;48.106;11.708;2022-11-20T04:16:13;2.97;;;2.77;;
1831;SDS011;1680;48.106;11.708;2022-11-20T04:18:39;2.33;;;2.13;;
1831;SDS011;1680;48.106;11.708;2022-11-20T04:21:06;2.93;;;2.73;;
1831;SDS011;1680;48.106;11.708;2022-11-20T04:23:33;2.60;;;2.37;;
1831;SDS011;1680;48.106;11.708;2022-11-20T04:26:04;2.27;;;2.07;;
1831;SDS011;1680;48.106;11.708;2022-11-20T04:28:31;2.77;;;2.47;;
1831;SDS011;1680;48.106;11.708;2022-11-20T04:31:02;2.90;;;2.60;;
1831;SDS011;1680;48.106;11.708;2022-11-20T04:33:28;2.60;;;2.40;;
1831;SDS011;1680;48.106;11.708;2022-11-20T04:35:55;2.33;;;2.13;;
1831;SDS011;1680;48.106;11.708;2022-11-20T04:38:25;2.93;;;2.70;;
1831;SDS011;1680;48.106;11.708;2022-11-20T04:40:55;3.07;;;2.10;;
1831;SDS011;1680;48.106;11.708;2022-11-20T04:43:23;2.60;;;2.40;;
1831;SDS011;1680;48.106;11.708;2022-11-20T04:45:50;2.50;;;2.30;;
1831;SDS011;1680;48.106;11.708;2022-11-20T04:48:17;3.40;;;2.00;;
1831;SDS011;1680;48.106;11.708;2022-11-20T04:50:43;3.60;;;2.10;;
1831;SDS011;1680;48.106;11.708;2022-11-20T04:53:10;2.40;;;2.27;;
1831;SDS011;1680;48.106;11.708;2022-11-20T04:55:36;2.50;;;1.87;;
1831;SDS011;1680;48.106;11.708;2022-11-20T04:58:03;2.10;;;2.00;;
1831;SDS011;1680;48.106;11.708;2022-11-20T05:00:32;2.70;;;2.50;;
1831;SDS011;1680;48.106;11.708;2022-11-20T05:02:58;2.07;;;1.97;;
1831;SDS011;1680;48.106;11.708;2022-11-20T05:05:25;2.83;;;2.23;;
1831;SDS011;1680;48.106;11.708;2022-11-20T05:07:51;2.43;;;2.23;;
1831;SDS011;1680;48.106;11.708;2022-11-20T05:10:19;2.90;;;2.53;;
1831;SDS011;1680;48.106;11.708;2022-11-20T05:12:46;3.17;;;2.87;;
1831;SDS011;1680;48.106;11.708;2022-11-20T05:15:13;2.60;;;2.40;;
1831;SDS011;1680;48.106;11.708;2022-11-20T05:17:44;2.60;;;2.40;;
1831;SDS011;1680;48.106;11.708;2022-11-20T05:20:12;2.77;;;2.57;;
1831;SDS011;1680;48.106;11.708;2022-11-20T05:22:39;3.00;;;2.40;;
1831;SDS011;1680;48.106;11.708;2022-11-20T05:25:05;2.80;;;2.53;;
1831;SDS011;1680;48.106;11.708;2022-11-20T05:27:32;3.20;;;2.60;;
1831;SDS011;1680;48.106;11.708;2022-11-20T05:30:00;2.43;;;2.23;;
1831;SDS011;1680;48.106;11.708;2022-11-20T05:32:26;3.00;;;2.30;;
1831;SDS011;1680;48.106;11.708;2022-11-20T05:34:54;2.30;;;2.17;;
1831;SDS011;1680;48.106;11.708;2022-11-20T05:37:21;2.50;;;2.30;;
1831;SDS011;1680;48.106;11.708;2022-11-20T05:39:47;2.73;;;2.53;;
1831;SDS011;1680;48.106;11.708;2022-11-20T05:42:14;2.83;;;2.53;;
1831;SDS011;1680;48.106;11.708;2022-11-20T05:44:56;2.57;;;2.37;;
1831;SDS011;1680;48.106;11.708;2022-11-20T05:47:23;3.47;;;2.30;;
1831;SDS011;1680;48.106;11.708;2022-11-20T05:49:50;2.70;;;2.33;;
1831;SDS011;1680;48.106;11.708;2022-11-20T05:52:17;2.80;;;2.60;;
1831;SDS011;1680;48.106;11.708;2022-11-20T05:54:44;2.37;;;2.17;;
1831;SDS011;1680;48.106;11.708;2022-11-20T05:57:11;2.60;;;2.40;;
1831;SDS011;1680;48.106;11.708;2022-11-20T05:59:37;2.00;;;1.80;;
1831;SDS011;1680;48.106;11.708;2022-11-20T06:02:04;2.40;;;2.20;;
1831;SDS011;1680;48.106;11.708;2022-11-20T06:04:30;5.30;;;2.40;;
1831;SDS011;1680;48.106;11.708;2022-11-20T06:06:57;2.50;;;2.30;;
1831;SDS011;1680;48.106;11.708;2022-11-20T06:09:25;2.57;;;2.37;;
1831;SDS011;1680;48.106;11.708;2022-11-20T06:11:51;2.07;;;1.97;;
1831;SDS011;1680;48.106;11.708;2022-11-20T06:14:18;2.27;;;2.07;;
1831;SDS011;1680;48.106;11.708;2022-11-20T06:16:45;2.23;;;2.13;;
1831;SDS011;1680;48.106;11.708;2022-11-20T06:19:11;2.67;;;2.30;;
1831;SDS011;1680;48.106;11.708;2022-11-20T06:21:38;2.40;;;2.20;;
1831;SDS011;1680;48.106;11.708;2022-11-20T06:24:05;2.60;;;2.40;;
1831;SDS011;1680;48.106;11.708;2022-11-20T06:26:33;2.67;;;2.30;;
1831;SDS011;1680;48.106;11.708;2022-11-20T06:29:00;2.87;;;2.67;;
1831;SDS011;1680;48.106;11.708;2022-11-20T06:31:26;2.40;;;2.00;;
1831;SDS011;1680;48.106;11.708;2022-11-20T06:33:59;3.30;;;2.77;;
1831;SDS011;1680;48.106;11.708;2022-11-20T06:36:25;2.60;;;2.20;;
1831;SDS011;1680;48.106;11.708;2022-11-20T06:38:52;3.43;;;2.70;;
1831;SDS011;1680;48.106;11.708;2022-11-20T06:41:20;2.57;;;2.37;;
1831;SDS011;1680;48.106;11.708;2022-11-20T06:43:48;2.30;;;2.13;;
1831;SDS011;1680;48.106;11.708;2022-11-20T06:46:16;2.27;;;2.10;;
1831;SDS011;1680;48.106;11.708;2022-11-20T06:48:43;2.40;;;2.20;;
1831;SDS011;1680;48.106;11.708;2022-11-20T06:51:10;2.07;;;1.87;;
1831;SDS011;1680;48.106;11.708;2022-11-20T06:53:37;2.10;;;1.97;;
1831;SDS011;1680;48.106;11.708;2022-11-20T06:56:04;1.73;;;1.63;;
1831;SDS011;1680;48.106;11.708;2022-11-20T06:58:31;2.27;;;2.07;;
1831;SDS011;1680;48.106;11.708;2022-11-20T07:00:59;2.10;;;1.90;;
1831;SDS011;1680;48.106;11.708;2022-11-20T07:03:26;1.73;;;1.63;;
1831;SDS011;1680;48.106;11.708;2022-11-20T07:05:54;1.80;;;1.70;;
1831;SDS011;1680;48.106;11.708;2022-11-20T07:08:21;2.00;;;1.90;;
1831;SDS011;1680;48.106;11.708;2022-11-20T07:10:48;2.60;;;2.40;;
1831;SDS011;1680;48.106;11.708;2022-11-20T07:13:14;2.57;;;2.33;;
1831;SDS011;1680;48.106;11.708;2022-11-20T07:15:41;2.63;;;2.17;;
1831;SDS011;1680;48.106;11.708;2022-11-20T07:18:09;2.37;;;2.17;;
1831;SDS011;1680;48.106;11.708;2022-11-20T07:20:36;2.30;;;2.10;;
1831;SDS011;1680;48.106;11.708;2022-11-20T07:25:55;2.67;;;2.47;;
1831;SDS011;1680;48.106;11.708;2022-11-20T07:28:21;2.47;;;2.30;;
1831;SDS011;1680;48.106;11.708;2022-11-20T07:30:52;3.00;;;2.80;;
1831;SDS011;1680;48.106;11.708;2022-11-20T07:33:21;2.50;;;2.30;;
1831;SDS011;1680;48.106;11.708;2022-11-20T07:35:50;2.37;;;2.10;;
1831;SDS011;1680;48.106;11.708;2022-11-20T07:38:16;3.07;;;2.80;;
1831;SDS011;1680;48.106;11.708;2022-11-20T07:40:43;2.90;;;2.70;;
1831;SDS011;1680;48.106;11.708;2022-11-20T07:43:12;3.40;;;2.80;;
1831;SDS011;1680;48.106;11.708;2022-11-20T07:45:39;2.60;;;2.40;;
1831;SDS011;1680;48.106;11.708;2022-11-20T07:48:05;2.70;;;2.50;;
1831;SDS011;1680;48.106;11.708;2022-11-20T07:50:33;3.10;;;2.53;;
1831;SDS011;1680;48.106;11.708;2022-11-20T07:53:00;3.07;;;2.40;;
1831;SDS011;1680;48.106;11.708;2022-11-20T07:55:27;2.27;;;2.07;;
1831;SDS011;1680;48.106;11.708;2022-11-20T07:57:54;2.63;;;2.43;;
1831;SDS011;1680;48.106;11.708;2022-11-20T08:00:21;2.83;;;2.63;;
1831;SDS011;1680;48.106;11.708;2022-11-20T08:02:47;2.50;;;2.23;;
1831;SDS011;1680;48.106;11.708;2022-11-20T08:05:14;2.30;;;2.10;;
1831;SDS011;1680;48.106;11.708;2022-11-20T08:07:42;2.30;;;2.10;;
1831;SDS011;1680;48.106;11.708;2022-11-20T08:10:10;2.53;;;2.33;;
1831;SDS011;1680;48.106;11.708;2022-11-20T08:12:43;2.60;;;2.30;;
1831;SDS011;1680;48.106;11.708;2022-11-20T08:15:27;2.90;;;2.27;;
1831;SDS011;1680;48.106;11.708;2022-11-20T08:17:58;2.37;;;2.17;;
1831;SDS011;1680;48.106;11.708;2022-11-20T08:20:25;2.37;;;2.17;;
1831;SDS011;1680;48.106;11.708;2022-11-20T08:22:53;2.97;;;2.00;;
1831;SDS011;1680;48.106;11.708;2022-11-20T08:25:23;2.37;;;2.17;;
1831;SDS011;1680;48.106;11.708;2022-11-20T08:27:50;1.87;;;1.77;;
1831;SDS011;1680;48.106;11.708;2022-11-20T08:30:16;2.10;;;2.00;;
1831;SDS011;1680;48.106;11.708;2022-11-20T08:32:43;2.00;;;1.90;;
1831;SDS011;1680;48.106;11.708;2022-11-20T08:35:12;1.80;;;1.70;;
1831;SDS011;1680;48.106;11.708;2022-11-20T08:37:40;2.10;;;1.90;;
1831;SDS011;1680;48.106;11.708;2022-11-20T08:40:09;1.73;;;1.60;;
1831;SDS011;1680;48.106;11.708;2022-11-20T08:42:36;2.07;;;1.80;;
1831;SDS011;1680;48.106;11.708;2022-11-20T08:45:03;1.70;;;1.60;;
1831;SDS011;1680;48.106;11.708;2022-11-20T08:47:31;2.80;;;2.60;;
1831;SDS011;1680;48.106;11.708;2022-11-20T08:49:58;1.73;;;1.63;;
1831;SDS011;1680;48.106;11.708;2022-11-20T08:52:24;2.23;;;2.07;;
1831;SDS011;1680;48.106;11.708;2022-11-20T08:54:51;2.17;;;1.97;;
1831;SDS011;1680;48.106;11.708;2022-11-20T08:57:18;2.60;;;1.83;;
1831;SDS011;1680;48.106;11.708;2022-11-20T08:59:45;2.30;;;1.97;;
1831;SDS011;1680;48.106;11.708;2022-11-20T09:02:13;2.40;;;2.20;;
1831;SDS011;1680;48.106;11.708;2022-11-20T09:04:40;2.27;;;2.10;;
1831;SDS011;1680;48.106;11.708;2022-11-20T09:07:06;2.00;;;1.90;;
1831;SDS011;1680;48.106;11.708;2022-11-20T09:09:35;1.70;;;1.60;;
1831;SDS011;1680;48.106;11.708;2022-11-20T09:12:11;2.50;;;2.00;;
1831;SDS011;1680;48.106;11.708;2022-11-20T09:14:41;2.00;;;1.80;;
1831;SDS011;1680;48.106;11.708;2022-11-20T09:17:09;1.90;;;1.80;;
1831;SDS011;1680;48.106;11.708;2022-11-20T09:19:38;2.03;;;1.50;;
1831;SDS011;1680;48.106;11.708;2022-11-20T09:22:05;2.93;;;2.03;;
1831;SDS011;1680;48.106;11.708;2022-11-20T09:24:31;2.13;;;1.73;;
1831;SDS011;1680;48.106;11.708;2022-11-20T09:26:58;2.10;;;1.70;;
1831;SDS011;1680;48.106;11.708;2022-11-20T09:29:33;2.30;;;1.77;;
1831;SDS011;1680;48.106;11.708;2022-11-20T09:34:31;1.93;;;1.83;;
1831;SDS011;1680;48.106;11.708;2022-11-20T09:36:57;1.87;;;1.60;;
1831;SDS011;1680;48.106;11.708;2022-11-20T09:39:26;1.80;;;1.70;;
1831;SDS011;1680;48.106;11.708;2022-11-20T09:42:02;2.23;;;1.90;;
1831;SDS011;1680;48.106;11.708;2022-11-20T09:44:34;1.40;;;1.30;;
1831;SDS011;1680;48.106;11.708;2022-11-20T09:47:04;1.87;;;1.50;;
1831;SDS011;1680;48.106;11.708;2022-11-20T09:49:39;1.90;;;1.77;;
1831;SDS011;1680;48.106;11.708;2022-11-20T09:52:12;1.83;;;1.60;;
1831;SDS011;1680;48.106;11.708;2022-11-20T09:54:41;1.57;;;1.40;;
1831;SDS011;1680;48.106;11.708;2022-11-20T09:57:09;2.33;;;1.40;;
1831;SDS011;1680;48.106;11.708;2022-11-20T09:59:38;1.20;;;1.10;;
1831;SDS011;1680;48.106;11.708;2022-11-20T10:02:11;2.87;;;1.77;;
1831;SDS011;1680;48.106;11.708;2022-11-20T10:04:43;1.77;;;1.60;;
1831;SDS011;1680;48.106;11.708;2022-11-20T10:07:12;1.87;;;1.77;;
1831;SDS011;1680;48.106;11.708;2022-11-20T10:09:43;2.00;;;1.80;;
1831;SDS011;1680;48.106;11.708;2022-11-20T10:12:15;1.97;;;1.80;;
1831;SDS011;1680;48.106;11.708;2022-11-20T10:14:50;1.50;;;1.40;;
1831;SDS011;1680;48.106;11.708;2022-11-20T10:17:22;2.00;;;1.57;;
1831;SDS011;1680;48.106;11.708;2022-11-20T10:19:56;1.80;;;1.50;;
1831;SDS011;1680;48.106;11.708;2022-11-20T10:22:32;1.70;;;1.60;;
1831;SDS011;1680;48.106;11.708;2022-11-20T10:25:02;1.30;;;1.20;;
1831;SDS011;1680;48.106;11.708;2022-11-20T10:27:39;1.50;;;1.40;;
1831;SDS011;1680;48.106;11.708;2022-11-20T10:30:11;2.80;;;2.00;;
1831;SDS011;1680;48.106;11.708;2022-11-20T10:32:39;4.27;;;2.00;;
1831;SDS011;1680;48.106;11.708;2022-11-20T10:35:16;1.40;;;1.30;;
1831;SDS011;1680;48.106;11.708;2022-11-20T10:37:47;1.67;;;1.50;;
1831;SDS011;1680;48.106;11.708;2022-11-20T10:40:19;1.60;;;1.50;;
1831;SDS011;1680;48.106;11.708;2022-11-20T10:42:47;2.00;;;1.73;;
1831;SDS011;1680;48.106;11.708;2022-11-20T10:45:18;1.90;;;1.70;;
1831;SDS011;1680;48.106;11.708;2022-11-20T10:47:47;1.83;;;1.70;;
1831;SDS011;1680;48.106;11.708;2022-11-20T10:50:15;1.57;;;1.17;;
1831;SDS011;1680;48.106;11.708;2022-11-20T10:52:45;2.50;;;1.60;;
1831;SDS011;1680;48.106;11.708;2022-11-20T10:55:19;2.00;;;1.40;;
1831;SDS011;1680;48.106;11.708;2022-11-20T10:57:51;1.30;;;1.20;;
1831;SDS011;1680;48.106;11.708;2022-11-20T11:00:20;1.80;;;1.70;;
1831;SDS011;1680;48.106;11.708;2022-11-20T11:02:47;1.83;;;1.73;;
1831;SDS011;1680;48.106;11.708;2022-11-20T11:05:18;1.30;;;1.20;;
1831;SDS011;1680;48.106;11.708;2022-11-20T11:07:48;2.70;;;2.13;;
1831;SDS011;1680;48.106;11.708;2022-11-20T11:10:16;2.23;;;2.03;;
1831;SDS011;1680;48.106;11.708;2022-11-20T11:12:44;2.33;;;1.63;;
1831;SDS011;1680;48.106;11.708;2022-11-20T11:15:12;2.07;;;1.73;;
1831;SDS011;1680;48.106;11.708;2022-11-20T11:17:45;1.23;;;1.13;;
1831;SDS011;1680;48.106;11.708;2022-11-20T11:20:14;2.00;;;1.60;;
1831;SDS011;1680;48.106;11.708;2022-11-20T11:22:45;2.37;;;1.93;;
1831;SDS011;1680;48.106;11.708;2022-11-20T11:25:21;2.27;;;1.40;;
1831;SDS011;1680;48.106;11.708;2022-11-20T11:27:47;1.73;;;1.63;;
1831;SDS011;1680;48.106;11.708;2022-11-20T11:30:15;2.07;;;1.97;;
1831;SDS011;1680;48.106;11.708;2022-11-20T11:32:42;2.03;;;1.83;;
1831;SDS011;1680;48.106;11.708;2022-11-20T11:35:20;4.00;;;1.40;;
1831;SDS011;1680;48.106;11.708;2022-11-20T11:37:48;3.07;;;1.40;;
1831;SDS011;1680;48.106;11.708;2022-11-20T11:40:16;2.80;;;1.60;;
1831;SDS011;1680;48.106;11.708;2022-11-20T11:42:44;2.13;;;1.70;;
1831;SDS011;1680;48.106;11.708;2022-11-20T11:45:13;1.53;;;1.40;;
1831;SDS011;1680;48.106;11.708;2022-11-20T11:47:43;1.83;;;1.30;;
1831;SDS011;1680;48.106;11.708;2022-11-20T11:50:14;1.87;;;1.50;;
1831;SDS011;1680;48.106;11.708;2022-11-20T11:52:42;1.50;;;1.40;;
1831;SDS011;1680;48.106;11.708;2022-11-20T11:55:12;1.70;;;1.60;;
1831;SDS011;1680;48.106;11.708;2022-11-20T11:57:41;2.00;;;1.47;;
1831;SDS011;1680;48.106;11.708;2022-11-20T12:00:10;2.83;;;2.00;;
1831;SDS011;1680;48.106;11.708;2022-11-20T12:02:38;2.10;;;1.60;;
1831;SDS011;1680;48.106;11.708;2022-11-20T12:05:15;1.93;;;1.33;;
1831;SDS011;1680;48.106;11.708;2022-11-20T12:07:43;1.57;;;1.47;;
1831;SDS011;1680;48.106;11.708;2022-11-20T12:10:14;1.70;;;1.60;;
1831;SDS011;1680;48.106;11.708;2022-11-20T12:12:42;1.73;;;1.63;;
1831;SDS011;1680;48.106;11.708;2022-11-20T12:15:11;1.80;;;1.70;;
1831;SDS011;1680;48.106;11.708;2022-11-20T12:17:38;2.00;;;1.70;;
1831;SDS011;1680;48.106;11.708;2022-11-20T12:20:10;1.73;;;1.60;;
1831;SDS011;1680;48.106;11.708;2022-11-20T12:22:39;2.13;;;1.93;;
1831;SDS011;1680;48.106;11.708;2022-11-20T12:25:11;2.13;;;1.87;;
1831;SDS011;1680;48.106;11.708;2022-11-20T12:30:23;3.13;;;2.30;;
1831;SDS011;1680;48.106;11.708;2022-11-20T12:33:02;2.00;;;1.80;;
1831;SDS011;1680;48.106;11.708;2022-11-20T12:35:52;1.93;;;1.80;;
1831;SDS011;1680;48.106;11.708;2022-11-20T12:41:18;2.50;;;2.00;;
1831;SDS011;1680;48.106;11.708;2022-11-20T12:44:02;2.20;;;2.10;;
1831;SDS011;1680;48.106;11.708;2022-11-20T12:46:50;1.83;;;1.70;;
1831;SDS011;1680;48.106;11.708;2022-11-20T12:49:26;1.73;;;1.63;;
1831;SDS011;1680;48.106;11.708;2022-11-20T12:52:03;2.30;;;2.07;;
1831;SDS011;1680;48.106;11.708;2022-11-20T12:54:46;2.07;;;1.90;;
1831;SDS011;1680;48.106;11.708;2022-11-20T12:57:24;1.93;;;1.77;;
1831;SDS011;1680;48.106;11.708;2022-11-20T13:00:00;1.90;;;1.80;;
1831;SDS011;1680;48.106;11.708;2022-11-20T13:02:31;2.97;;;2.67;;
1831;SDS011;1680;48.106;11.708;2022-11-20T13:07:48;1.73;;;1.63;;
1831;SDS011;1680;48.106;11.708;2022-11-20T13:10:22;3.40;;;2.10;;
1831;SDS011;1680;48.106;11.708;2022-11-20T13:12:50;1.90;;;1.80;;
1831;SDS011;1680;48.106;11.708;2022-11-20T13:15:30;1.90;;;1.80;;
1831;SDS011;1680;48.106;11.708;2022-11-20T13:17:59;1.80;;;1.70;;
1831;SDS011;1680;48.106;11.708;2022-11-20T13:20:27;2.43;;;1.80;;
1831;SDS011;1680;48.106;11.708;2022-11-20T13:22:55;1.77;;;1.67;;
1831;SDS011;1680;48.106;11.708;2022-11-20T13:25:24;2.27;;;2.07;;
1831;SDS011;1680;48.106;11.708;2022-11-20T13:27:52;1.63;;;1.53;;
1831;SDS011;1680;48.106;11.708;2022-11-20T13:30:21;1.40;;;1.30;;
1831;SDS011;1680;48.106;11.708;2022-11-20T13:32:52;2.30;;;2.10;;
1831;SDS011;1680;48.106;11.708;2022-11-20T13:35:31;1.80;;;1.70;;
1831;SDS011;1680;48.106;11.708;2022-11-20T13:38:02;2.10;;;1.90;;
1831;SDS011;1680;48.106;11.708;2022-11-20T13:40:30;4.63;;;2.20;;
1831;SDS011;1680;48.106;11.708;2022-11-20T13:43:02;2.10;;;1.90;;
1831;SDS011;1680;48.106;11.708;2022-11-20T13:45:30;1.80;;;1.70;;
1831;SDS011;1680;48.106;11.708;2022-11-20T13:48:00;3.30;;;2.10;;
1831;SDS011;1680;48.106;11.708;2022-11-20T13:50:39;2.13;;;1.97;;
1831;SDS011;1680;48.106;11.708;2022-11-20T13:53:12;3.30;;;2.10;;
1831;SDS011;1680;48.106;11.708;2022-11-20T13:55:42;2.80;;;2.27;;
1831;SDS011;1680;48.106;11.708;2022-11-20T13:58:20;3.07;;;2.30;;
1831;SDS011;1680;48.106;11.708;2022-11-20T14:03:23;2.80;;;2.00;;
1831;SDS011;1680;48.106;11.708;2022-11-20T14:05:52;2.40;;;2.20;;
1831;SDS011;1680;48.106;11.708;2022-11-20T14:08:24;2.40;;;2.20;;
1831;SDS011;1680;48.106;11.708;2022-11-20T14:11:02;2.10;;;2.00;;
1831;SDS011;1680;48.106;11.708;2022-11-20T14:13:29;1.73;;;1.63;;
1831;SDS011;1680;48.106;11.708;2022-11-20T14:15:58;2.10;;;1.73;;
1831;SDS011;1680;48.106;11.708;2022-11-20T14:18:25;2.90;;;2.33;;
1831;SDS011;1680;48.106;11.708;2022-11-20T14:20:53;1.97;;;1.80;;
1831;SDS011;1680;48.106;11.708;2022-11-20T14:23:23;2.43;;;2.23;;
1831;SDS011;1680;48.106;11.708;2022-11-20T14:25:51;2.53;;;2.30;;
1831;SDS011;1680;48.106;11.708;2022-11-20T14:28:19;2.30;;;1.80;;
1831;SDS011;1680;48.106;11.708;2022-11-20T14:30:55;2.63;;;2.00;;
1831;SDS011;1680;48.106;11.708;2022-11-20T14:33:23;2.23;;;2.03;;
1831;SDS011;1680;48.106;11.708;2022-11-20T14:35:52;1.90;;;1.80;;
1831;SDS011;1680;48.106;11.708;2022-11-20T14:38:27;2.10;;;1.87;;
1831;SDS011;1680;48.106;11.708;2022-11-20T14:41:05;1.83;;;1.73;;
1831;SDS011;1680;48.106;11.708;2022-11-20T14:43:39;2.73;;;2.07;;
1831;SDS011;1680;48.106;11.708;2022-11-20T14:46:11;2.13;;;2.00;;
1831;SDS011;1680;48.106;11.708;2022-11-20T14:48:39;2.73;;;2.00;;
1831;SDS011;1680;48.106;11.708;2022-11-20T14:51:08;3.37;;;2.87;;
1831;SDS011;1680;48.106;11.708;2022-11-20T14:53:38;2.50;;;2.30;;
1831;SDS011;1680;48.106;11.708;2022-11-20T14:56:04;2.70;;;2.50;;
1831;SDS011;1680;48.106;11.708;2022-11-20T14:58:36;3.03;;;2.60;;
1831;SDS011;1680;48.106;11.708;2022-11-20T15:01:11;2.37;;;2.17;;
1831;SDS011;1680;48.106;11.708;2022-11-20T15:03:41;2.50;;;2.30;;
1831;SDS011;1680;48.106;11.708;2022-11-20T15:06:11;2.57;;;2.37;;
1831;SDS011;1680;48.106;11.708;2022-11-20T15:08:39;1.87;;;1.70;;
1831;SDS011;1680;48.106;11.708;2022-11-20T15:11:16;2.00;;;1.80;;
1831;SDS011;1680;48.106;11.708;2022-11-20T15:13:43;1.30;;;1.20;;
1831;SDS011;1680;48.106;11.708;2022-11-20T15:16:13;5.17;;;3.30;;
1831;SDS011;1680;48.106;11.708;2022-11-20T15:18:43;12.03;;;4.77;;
1831;SDS011;1680;48.106;11.708;2022-11-20T15:21:11;7.20;;;3.87;;
1831;SDS011;1680;48.106;11.708;2022-11-20T15:23:40;2.10;;;1.83;;
1831;SDS011;1680;48.106;11.708;2022-11-20T15:26:08;2.67;;;1.80;;
1831;SDS011;1680;48.106;11.708;2022-11-20T15:28:38;2.90;;;1.70;;